createdAt,value
2022-12-15T00:00:19.051Z,10.03
2022-12-15T00:03:04.643Z,13.37
2022-12-15T00:05:50.451Z,7.43
2022-12-15T00:08:36.651Z,8.80
2022-12-15T00:11:22.984Z,15.77
2022-12-15T00:14:09.277Z,21.57
2022-12-15T00:16:54.762Z,27.40
2022-12-15T00:19:40.548Z,14.47
2022-12-15T00:22:26.174Z,16.00
2022-12-15T00:25:11.865Z,17.53
2022-12-15T00:27:57.645Z,11.27
2022-12-15T00:30:43.206Z,7.27
2022-12-15T00:33:30.409Z,11.60
2022-12-15T00:36:19.267Z,6.80
2022-12-15T00:38:47.633Z,8.60
2022-12-15T00:41:19.127Z,18.50
2022-12-15T00:43:46.848Z,19.20
2022-12-15T00:46:32.935Z,15.57
2022-12-15T00:49:00.538Z,8.87
2022-12-15T00:51:46.803Z,6.33
2022-12-15T00:54:32.585Z,11.37
2022-12-15T00:57:18.252Z,10.53
2022-12-15T01:00:03.727Z,5.30
2022-12-15T01:02:49.535Z,4.63
2022-12-15T01:05:35.446Z,4.80
2022-12-15T01:08:20.977Z,6.33
2022-12-15T01:11:06.392Z,4.30
2022-12-15T01:13:51.896Z,4.13
2022-12-15T01:16:37.516Z,3.93
2022-12-15T01:19:23.130Z,4.40
2022-12-15T01:21:50.215Z,3.33
2022-12-15T01:24:17.341Z,3.57
2022-12-15T01:26:44.425Z,4.73
2022-12-15T01:29:11.454Z,4.73
2022-12-15T01:34:56.098Z,3.80
2022-12-15T01:37:23.223Z,3.83
2022-12-15T01:40:08.876Z,4.87
2022-12-15T01:42:35.943Z,5.17
2022-12-15T01:45:42.217Z,5.40
2022-12-15T01:48:12.272Z,4.73
2022-12-15T01:51:07.557Z,7.17
2022-12-15T01:53:42.715Z,5.70
2022-12-15T01:56:10.982Z,5.93
2022-12-15T01:58:41.460Z,5.00
2022-12-15T02:01:09.727Z,4.13
2022-12-15T02:03:38.563Z,2.20
2022-12-15T02:06:06.384Z,2.60
2022-12-15T02:08:33.921Z,3.20
2022-12-15T02:11:42.508Z,3.07
2022-12-15T02:14:11.799Z,3.70
2022-12-15T02:17:29.670Z,3.73
2022-12-15T02:20:40.128Z,3.43
2022-12-15T02:23:44.091Z,3.30
2022-12-15T02:26:48.188Z,3.37
2022-12-15T02:29:40.471Z,3.87
2022-12-15T02:32:15.158Z,3.97
2022-12-15T02:35:10.283Z,3.73
2022-12-15T02:37:39.696Z,2.63
2022-12-15T02:40:09.250Z,3.27
2022-12-15T02:42:42.711Z,3.33
2022-12-15T02:46:26.418Z,2.87
2022-12-15T03:18:47.826Z,2.67
2022-12-15T03:21:15.151Z,2.60
2022-12-15T03:23:42.451Z,3.67
2022-12-15T03:26:09.520Z,4.60
2022-12-15T03:28:36.593Z,4.43
2022-12-15T03:31:03.738Z,4.87
2022-12-15T03:33:33.908Z,3.40
2022-12-15T03:36:01.400Z,2.83
2022-12-15T03:38:28.464Z,2.47
2022-12-15T03:40:55.606Z,3.23
2022-12-15T03:43:22.669Z,3.13
2022-12-15T03:45:49.942Z,3.50
2022-12-15T03:48:17.131Z,3.10
2022-12-15T03:50:44.662Z,3.67
2022-12-15T03:53:11.768Z,3.10
2022-12-15T03:55:38.856Z,3.67
2022-12-15T03:58:05.943Z,3.33
2022-12-15T04:00:33.630Z,2.10
2022-12-15T04:03:00.669Z,3.40
2022-12-15T04:05:30.906Z,3.00
2022-12-15T04:07:59.506Z,5.13
2022-12-15T04:10:33.848Z,5.23
2022-12-15T04:13:05.502Z,3.17
2022-12-15T04:15:33.653Z,4.73
2022-12-15T04:18:05.814Z,5.13
2022-12-15T04:20:33.438Z,7.60
2022-12-15T04:23:00.516Z,7.77
2022-12-15T04:25:46.816Z,6.97
2022-12-15T04:28:33.018Z,6.27
2022-12-15T04:31:26.189Z,6.13
2022-12-15T04:34:18.435Z,6.70
2022-12-15T04:37:07.881Z,8.70
2022-12-15T04:39:54.959Z,5.23
2022-12-15T04:42:40.884Z,5.73
2022-12-15T04:45:28.071Z,4.17
2022-12-15T04:48:13.438Z,4.47
2022-12-15T04:50:58.832Z,7.43
2022-12-15T04:53:44.439Z,8.40
2022-12-15T04:56:32.003Z,5.13
2022-12-15T04:59:18.647Z,5.50
2022-12-15T05:02:04.630Z,4.60
2022-12-15T05:04:50.602Z,2.77
2022-12-15T05:07:36.328Z,2.97
2022-12-15T05:10:22.618Z,4.97
2022-12-15T05:13:08.195Z,2.80
2022-12-15T05:15:53.862Z,4.27
2022-12-15T05:18:39.690Z,3.47
2022-12-15T05:21:25.840Z,3.40
2022-12-15T05:24:11.522Z,2.33
2022-12-15T05:26:57.079Z,4.10
2022-12-15T05:29:42.936Z,3.60
2022-12-15T05:32:10.037Z,3.10
2022-12-15T05:34:38.359Z,4.13
2022-12-15T05:37:07.419Z,3.23
2022-12-15T05:39:34.625Z,4.53
2022-12-15T05:42:01.778Z,3.43
2022-12-15T05:44:29.224Z,4.03
2022-12-15T05:46:56.330Z,7.17
2022-12-15T05:49:26.261Z,5.90
2022-12-15T05:51:53.511Z,4.03
2022-12-15T05:54:20.952Z,3.47
2022-12-15T05:56:50.482Z,4.50
2022-12-15T05:59:19.283Z,3.03
2022-12-15T06:01:46.793Z,3.00
2022-12-15T06:04:14.148Z,3.73
2022-12-15T06:06:41.850Z,3.70
2022-12-15T06:09:09.563Z,2.97
2022-12-15T06:11:37.650Z,2.60
2022-12-15T06:14:05.251Z,6.07
2022-12-15T06:16:32.574Z,6.63
2022-12-15T06:19:01.391Z,7.27
2022-12-15T06:21:37.483Z,4.77
2022-12-15T06:24:06.306Z,11.13
2022-12-15T06:26:35.988Z,6.37
2022-12-15T06:29:05.332Z,7.47
2022-12-15T06:31:34.055Z,8.30
2022-12-15T06:34:05.533Z,12.83
2022-12-15T06:36:32.730Z,4.70
2022-12-15T06:39:01.884Z,9.30
2022-12-15T06:41:30.632Z,11.27
2022-12-15T06:43:58.477Z,11.20
2022-12-15T06:46:26.961Z,9.77
2022-12-15T06:48:54.249Z,8.53
2022-12-15T06:51:21.587Z,8.57
2022-12-15T06:53:49.161Z,7.90
2022-12-15T06:56:34.048Z,7.43
2022-12-15T06:59:02.339Z,5.43
2022-12-15T07:01:30.311Z,7.07
2022-12-15T07:04:00.092Z,10.77
2022-12-15T07:06:28.592Z,6.27
2022-12-15T07:08:56.884Z,7.87
2022-12-15T07:11:24.305Z,5.53
2022-12-15T07:13:53.317Z,8.40
2022-12-15T07:16:22.238Z,7.57
2022-12-15T07:18:49.980Z,4.40
2022-12-15T07:21:17.509Z,4.70
2022-12-15T07:24:01.407Z,3.90
2022-12-15T07:26:29.287Z,3.93
2022-12-15T07:28:56.527Z,6.33
2022-12-15T07:31:24.478Z,9.07
2022-12-15T07:33:52.685Z,3.60
2022-12-15T07:36:20.415Z,3.97
2022-12-15T07:38:50.314Z,3.97
2022-12-15T07:41:19.347Z,4.60
2022-12-15T07:43:47.880Z,3.70
2022-12-15T07:46:15.566Z,4.10
2022-12-15T07:48:42.987Z,3.23
2022-12-15T07:51:18.903Z,3.43
2022-12-15T07:53:47.661Z,2.83
2022-12-15T07:56:15.544Z,4.27
2022-12-15T07:58:43.053Z,4.37
2022-12-15T08:01:12.677Z,4.57
2022-12-15T08:03:40.976Z,4.67
2022-12-15T08:06:14.011Z,3.30
2022-12-15T08:08:41.746Z,3.70
2022-12-15T08:11:13.622Z,3.77
2022-12-15T08:16:29.465Z,3.63
2022-12-15T08:18:59.639Z,4.57
2022-12-15T08:21:26.897Z,4.90
2022-12-15T08:23:53.931Z,5.37
2022-12-15T08:26:30.018Z,4.47
2022-12-15T08:29:11.781Z,3.77
2022-12-15T08:31:45.282Z,3.90
2022-12-15T08:34:12.481Z,4.70
2022-12-15T08:36:39.519Z,3.27
2022-12-15T08:39:06.707Z,4.33
2022-12-15T08:41:34.081Z,4.27
2022-12-15T08:44:02.287Z,6.53
2022-12-15T08:46:32.035Z,4.27
2022-12-15T08:48:59.369Z,4.60
2022-12-15T08:51:28.751Z,4.23
2022-12-15T08:53:56.919Z,5.77
2022-12-15T08:56:25.577Z,5.93
2022-12-15T08:58:57.924Z,4.90
2022-12-15T09:01:27.113Z,4.30
2022-12-15T09:03:56.542Z,3.77
2022-12-15T09:06:29.456Z,4.73
2022-12-15T09:08:58.300Z,4.83
2022-12-15T09:11:26.897Z,4.53
2022-12-15T09:13:54.539Z,7.53
2022-12-15T09:16:21.905Z,10.43
2022-12-15T09:18:51.668Z,7.47
2022-12-15T09:21:22.471Z,9.03
2022-12-15T09:23:52.168Z,11.30
2022-12-15T09:26:21.644Z,6.73
2022-12-15T09:28:50.081Z,9.47
2022-12-15T09:31:28.516Z,7.33
2022-12-15T09:33:59.626Z,9.10
2022-12-15T09:36:27.924Z,6.57
2022-12-15T09:38:55.352Z,7.33
2022-12-15T09:41:25.744Z,8.33
2022-12-15T09:44:15.272Z,7.27
2022-12-15T09:47:24.015Z,12.17
2022-12-15T09:49:58.792Z,10.10
2022-12-15T09:52:52.799Z,11.97
2022-12-15T09:55:23.039Z,8.43
2022-12-15T09:58:37.186Z,10.90
2022-12-15T10:01:39.988Z,12.47
2022-12-15T10:04:38.021Z,12.77
2022-12-15T10:07:28.435Z,9.43
2022-12-15T10:09:56.483Z,8.40
2022-12-15T10:12:30.573Z,11.13
2022-12-15T10:15:22.883Z,11.73
2022-12-15T10:17:59.447Z,9.90
2022-12-15T10:20:29.693Z,12.90
2022-12-15T10:23:02.628Z,11.67
2022-12-15T10:25:32.012Z,10.00
2022-12-15T10:28:37.536Z,8.40
2022-12-15T10:31:36.800Z,9.30
2022-12-15T10:34:19.012Z,8.27
2022-12-15T10:36:51.403Z,9.33
2022-12-15T10:39:19.823Z,11.10
2022-12-15T10:41:46.991Z,10.83
2022-12-15T10:44:31.927Z,9.97
2022-12-15T10:47:08.783Z,9.37
2022-12-15T10:49:36.042Z,11.83
2022-12-15T10:52:03.372Z,10.10
2022-12-15T10:54:36.745Z,11.43
2022-12-15T10:57:29.216Z,11.40
2022-12-15T11:00:23.336Z,12.17
2022-12-15T11:02:50.728Z,14.80
2022-12-15T11:05:18.652Z,14.00
2022-12-15T11:08:13.106Z,10.97
2022-12-15T11:11:16.006Z,14.10
2022-12-15T11:14:03.854Z,14.17
2022-12-15T11:16:31.949Z,15.33
2022-12-15T11:19:49.204Z,14.50
2022-12-15T11:22:35.131Z,13.93
2022-12-15T11:25:13.752Z,13.20
2022-12-15T11:27:45.004Z,15.77
2022-12-15T11:30:20.977Z,15.13
2022-12-15T11:32:55.852Z,13.80
2022-12-15T11:35:45.134Z,12.20
2022-12-15T11:38:47.095Z,13.17
2022-12-15T11:41:54.298Z,17.07
2022-12-15T11:45:18.454Z,14.10
2022-12-15T11:48:17.521Z,16.37
2022-12-15T11:51:06.817Z,12.93
2022-12-15T11:54:15.595Z,18.90
2022-12-15T12:00:12.481Z,18.10
2022-12-15T12:03:07.944Z,18.27
2022-12-15T12:06:26.165Z,30.30
2022-12-15T12:09:31.913Z,31.80
2022-12-15T12:12:40.049Z,26.80
2022-12-15T12:15:29.908Z,23.03
2022-12-15T12:18:06.318Z,21.30
2022-12-15T12:21:03.606Z,22.47
2022-12-15T12:24:31.945Z,23.23
2022-12-15T12:27:07.067Z,18.43
2022-12-15T12:29:38.932Z,22.93
2022-12-15T12:32:30.294Z,20.37
2022-12-15T12:35:38.912Z,23.17
2022-12-15T12:38:11.470Z,21.87
2022-12-15T12:41:09.401Z,26.73
2022-12-15T12:43:50.259Z,25.73
2022-12-15T12:47:02.061Z,23.70
2022-12-15T12:49:41.864Z,25.03
2022-12-15T12:52:20.732Z,23.53
2022-12-15T12:54:56.086Z,24.67
2022-12-15T12:57:38.547Z,25.77
2022-12-15T13:00:18.403Z,23.90
2022-12-15T13:03:07.507Z,23.93
2022-12-15T13:05:37.315Z,24.87
2022-12-15T13:08:29.262Z,25.23
2022-12-15T13:10:56.638Z,24.20
2022-12-15T13:13:53.202Z,25.90
2022-12-15T13:16:27.892Z,27.53
2022-12-15T13:19:03.866Z,26.83
2022-12-15T13:22:03.607Z,27.20
2022-12-15T13:24:51.885Z,26.23
2022-12-15T13:27:20.003Z,29.67
2022-12-15T13:30:14.635Z,31.63
2022-12-15T13:32:45.546Z,34.27
2022-12-15T13:35:34.590Z,68.97
2022-12-15T13:38:03.257Z,44.20
2022-12-15T13:40:51.553Z,34.40
2022-12-15T13:43:48.818Z,32.17
2022-12-15T13:46:23.385Z,34.93
2022-12-15T13:49:14.254Z,35.23
2022-12-15T13:51:49.642Z,36.03
2022-12-15T13:54:23.602Z,39.03
2022-12-15T13:57:11.961Z,37.63
2022-12-15T13:59:56.145Z,38.17
2022-12-15T14:02:33.940Z,36.13
2022-12-15T14:05:22.651Z,36.70
2022-12-15T14:08:01.674Z,35.70
2022-12-15T14:10:41.835Z,36.57
2022-12-15T14:13:40.509Z,38.97
2022-12-15T14:16:20.334Z,36.27
2022-12-15T14:19:23.743Z,37.40
2022-12-15T14:21:53.352Z,37.00
2022-12-15T14:24:38.425Z,39.90
2022-12-15T14:27:06.637Z,47.33
2022-12-15T14:29:33.738Z,78.30
2022-12-15T14:32:01.212Z,45.67
2022-12-15T14:34:37.014Z,47.03
2022-12-15T14:37:12.308Z,43.23
2022-12-15T14:39:46.909Z,48.10
2022-12-15T14:42:23.844Z,39.20
2022-12-15T14:44:57.506Z,35.60
2022-12-15T14:47:28.636Z,39.53
2022-12-15T14:49:57.976Z,38.27
2022-12-15T14:52:35.023Z,34.90
2022-12-15T14:55:31.283Z,47.23
2022-12-15T14:57:59.078Z,48.57
2022-12-15T15:00:33.622Z,48.10
2022-12-15T15:03:25.548Z,41.03
2022-12-15T15:06:16.057Z,47.73
2022-12-15T15:08:51.577Z,45.87
2022-12-15T15:11:34.004Z,42.40
2022-12-15T15:14:05.929Z,46.17
2022-12-15T15:16:33.219Z,43.23
2022-12-15T15:19:02.668Z,43.73
2022-12-15T15:21:34.077Z,49.30
2022-12-15T15:24:23.523Z,48.33
2022-12-15T15:26:51.246Z,52.23
2022-12-15T15:29:41.086Z,49.20
2022-12-15T15:32:25.234Z,51.13
2022-12-15T15:34:52.396Z,48.23
2022-12-15T15:37:22.944Z,55.67
2022-12-15T15:39:56.692Z,53.97
2022-12-15T15:42:27.864Z,52.33
2022-12-15T15:44:59.437Z,55.90
2022-12-15T15:47:27.354Z,54.23
2022-12-15T15:49:58.302Z,66.37
2022-12-15T15:52:25.920Z,62.43
2022-12-15T15:54:53.807Z,63.40
2022-12-15T15:57:20.985Z,63.60
2022-12-15T15:59:48.083Z,72.18
2022-12-15T16:02:15.880Z,68.33
2022-12-15T16:04:44.188Z,55.67
2022-12-15T16:07:24.237Z,57.77
2022-12-15T16:09:52.800Z,59.80
2022-12-15T16:12:42.454Z,72.17
2022-12-15T16:15:21.568Z,69.90
2022-12-15T16:17:49.059Z,68.03
2022-12-15T16:20:18.501Z,67.13
2022-12-15T16:22:50.110Z,69.23
2022-12-15T16:25:31.738Z,67.10
2022-12-15T16:28:05.993Z,68.63
2022-12-15T16:30:33.074Z,68.57
2022-12-15T16:33:02.034Z,70.03
2022-12-15T16:35:30.167Z,79.43
2022-12-15T16:37:57.365Z,82.70
2022-12-15T16:40:26.819Z,72.97
2022-12-15T16:42:57.128Z,75.20
2022-12-15T16:45:26.500Z,82.20
2022-12-15T16:47:53.693Z,76.77
2022-12-15T16:50:34.271Z,71.83
2022-12-15T16:53:02.771Z,73.77
2022-12-15T16:55:35.091Z,85.20
2022-12-15T16:58:07.078Z,72.70
2022-12-15T17:00:35.490Z,70.73
2022-12-15T17:03:03.466Z,72.63
2022-12-15T17:05:36.118Z,71.37
2022-12-15T17:08:06.643Z,76.17
2022-12-15T17:10:34.053Z,69.53
2022-12-15T17:13:39.122Z,80.40
2022-12-15T17:16:14.487Z,73.33
2022-12-15T17:18:44.905Z,76.93
2022-12-15T17:21:30.720Z,82.00
2022-12-15T17:24:04.194Z,72.27
2022-12-15T17:26:34.202Z,76.97
2022-12-15T17:29:19.878Z,72.37
2022-12-15T17:31:47.074Z,69.80
2022-12-15T17:34:33.116Z,71.97
2022-12-15T17:37:02.678Z,78.43
2022-12-15T17:39:30.458Z,73.53
2022-12-15T17:42:01.011Z,69.60
2022-12-15T17:44:37.937Z,81.20
2022-12-15T17:47:08.453Z,74.07
2022-12-15T17:49:37.528Z,79.03
2022-12-15T17:52:28.478Z,77.30
2022-12-15T17:54:56.664Z,80.40
2022-12-15T17:57:23.933Z,83.90
2022-12-15T17:59:51.226Z,76.73
2022-12-15T18:02:18.377Z,76.93
2022-12-15T18:04:46.012Z,85.93
2022-12-15T18:07:18.708Z,69.77
2022-12-15T18:09:46.263Z,78.07
2022-12-15T18:12:22.563Z,79.83
2022-12-15T18:14:50.774Z,88.63
2022-12-15T18:17:17.795Z,72.30
2022-12-15T18:19:45.188Z,80.57
2022-12-15T18:22:23.330Z,72.73
2022-12-15T18:24:53.658Z,61.90
2022-12-15T18:27:27.097Z,70.20
2022-12-15T18:29:55.441Z,76.27
2022-12-15T18:32:25.755Z,67.17
2022-12-15T18:34:53.944Z,71.10
2022-12-15T18:37:23.432Z,75.40
2022-12-15T18:39:50.904Z,66.53
2022-12-15T18:42:19.787Z,58.70
2022-12-15T18:44:49.528Z,56.37
2022-12-15T18:47:18.711Z,60.70
2022-12-15T18:49:46.179Z,57.10
2022-12-15T18:52:21.812Z,70.53
2022-12-15T18:54:54.033Z,74.33
2022-12-15T18:57:27.123Z,72.70
2022-12-15T18:59:57.903Z,84.83
2022-12-15T19:02:25.171Z,95.30
2022-12-15T19:04:52.397Z,75.37
2022-12-15T19:07:19.509Z,109.87
2022-12-15T19:09:46.677Z,69.30
2022-12-15T19:12:17.827Z,113.73
2022-12-15T19:14:47.202Z,76.23
2022-12-15T19:17:38.540Z,73.37
2022-12-15T19:20:33.239Z,70.70
2022-12-15T19:23:00.399Z,59.13
2022-12-15T19:25:29.158Z,67.83
2022-12-15T19:28:01.190Z,67.13
2022-12-15T19:30:31.110Z,61.43
2022-12-15T19:32:58.147Z,66.07
2022-12-15T19:35:27.472Z,59.90
2022-12-15T19:37:57.934Z,71.17
2022-12-15T19:40:31.007Z,78.17
2022-12-15T19:42:59.121Z,60.67
2022-12-15T19:45:31.780Z,67.63
2022-12-15T19:47:59.717Z,79.40
2022-12-15T19:50:36.229Z,58.37
2022-12-15T19:53:12.818Z,62.43
2022-12-15T19:55:39.971Z,68.70
2022-12-15T19:58:28.476Z,54.37
2022-12-15T20:01:01.086Z,65.40
2022-12-15T20:03:30.797Z,66.43
2022-12-15T20:06:00.088Z,62.23
2022-12-15T20:08:36.751Z,57.70
2022-12-15T20:11:04.671Z,63.77
2022-12-15T20:13:32.022Z,52.50
2022-12-15T20:15:59.537Z,53.30
2022-12-15T20:18:26.557Z,60.27
2022-12-15T20:20:53.655Z,68.47
2022-12-15T20:23:26.537Z,64.83
2022-12-15T20:25:55.969Z,53.80
2022-12-15T20:28:28.498Z,52.13
2022-12-15T20:30:56.862Z,51.07
2022-12-15T20:33:24.750Z,66.37
2022-12-15T20:35:52.408Z,60.23
2022-12-15T20:38:32.009Z,61.40
2022-12-15T20:41:01.215Z,52.30
2022-12-15T20:43:31.902Z,51.80
2022-12-15T20:46:21.538Z,54.97
2022-12-15T20:48:50.144Z,61.33
2022-12-15T20:51:35.277Z,62.40
2022-12-15T20:54:03.036Z,55.67
2022-12-15T20:56:30.386Z,56.23
2022-12-15T20:58:58.355Z,62.00
2022-12-15T21:01:32.316Z,63.00
2022-12-15T21:04:02.269Z,65.20
2022-12-15T21:06:30.017Z,51.97
2022-12-15T21:08:58.181Z,57.00
2022-12-15T21:11:28.470Z,47.97
2022-12-15T21:14:04.157Z,41.13
2022-12-15T21:16:32.848Z,40.30
2022-12-15T21:19:19.759Z,49.53
2022-12-15T21:21:55.419Z,55.20
2022-12-15T21:24:28.215Z,52.47
2022-12-15T21:26:55.927Z,62.83
2022-12-15T21:29:25.443Z,43.30
2022-12-15T21:31:52.665Z,37.83
2022-12-15T21:34:19.919Z,38.77
2022-12-15T21:36:51.837Z,40.10
2022-12-15T21:39:25.673Z,30.43
2022-12-15T21:41:52.788Z,38.67
2022-12-15T21:44:22.270Z,33.53
2022-12-15T21:46:49.419Z,36.20
2022-12-15T21:49:18.838Z,35.60
2022-12-15T21:51:55.024Z,35.33
2022-12-15T21:54:34.891Z,33.77
2022-12-15T21:57:02.956Z,50.17
2022-12-15T21:59:32.637Z,43.47
2022-12-15T22:02:00.332Z,33.73
2022-12-15T22:04:31.503Z,34.97
2022-12-15T22:06:58.950Z,43.60
2022-12-15T22:09:26.194Z,49.53
2022-12-15T22:11:56.052Z,41.63
2022-12-15T22:14:43.415Z,39.83
2022-12-15T22:17:17.897Z,49.13
2022-12-15T22:19:45.258Z,41.33
2022-12-15T22:22:13.953Z,39.00
2022-12-15T22:24:41.665Z,40.70
2022-12-15T22:27:19.885Z,49.93
2022-12-15T22:29:48.471Z,47.10
2022-12-15T22:32:17.056Z,39.97
2022-12-15T22:34:44.197Z,39.30
2022-12-15T22:37:11.259Z,38.40
2022-12-15T22:39:38.345Z,42.60
2022-12-15T22:42:06.160Z,34.30
2022-12-15T22:44:37.351Z,47.00
2022-12-15T22:47:06.089Z,53.73
2022-12-15T22:49:38.476Z,46.90
2022-12-15T22:52:21.622Z,42.17
2022-12-15T22:54:48.793Z,49.40
2022-12-15T22:57:25.045Z,50.87
2022-12-15T23:00:07.459Z,36.20
2022-12-15T23:02:39.179Z,34.87
2022-12-15T23:05:07.848Z,42.73
2022-12-15T23:07:35.698Z,49.27
2022-12-15T23:10:22.729Z,54.53
2022-12-15T23:12:54.442Z,55.00
2022-12-15T23:15:42.083Z,49.27
2022-12-15T23:18:09.350Z,37.47
2022-12-15T23:20:36.678Z,47.90
2022-12-15T23:23:03.957Z,43.40
2022-12-15T23:25:31.054Z,46.87
2022-12-15T23:27:58.187Z,44.77
2022-12-15T23:30:25.750Z,47.27
2022-12-15T23:32:55.187Z,41.63
2022-12-15T23:35:22.692Z,48.17
2022-12-15T23:37:49.736Z,46.50
2022-12-15T23:40:22.378Z,48.53
2022-12-15T23:42:52.505Z,45.33
2022-12-15T23:45:20.435Z,43.57
2022-12-15T23:47:47.648Z,33.63
2022-12-15T23:50:14.771Z,41.17
2022-12-15T23:52:41.867Z,37.63
2022-12-15T23:55:12.098Z,30.27
2022-12-15T23:57:39.522Z,29.33
